Terminal Aerodrome Forecast
Issued by NWS

Current Version | Previous Version | Text Only | Print | Product List | Glossary On
Versions: 1 2 3 4 5 6 7 8 9 10 11 12 13 14 15 16 17 18 19 20 21 22
000 FTUS41 KBOX 250533 TAFHYA TAF KHYA 250533Z 2506/2606 01010G18KT 3SM BR OVC005 FM251000 01009KT P6SM OVC008 FM251300 01011KT P6SM OVC020 FM252200 03007KT P6SM BKN035 FM260400 02007KT P6SM SCT250=

USA.gov is the U.S. government's official web portal to all federal, state and local government web resources and services.